createdAt,value
2023-03-18T00:00:13.067Z,4.78
2023-03-18T00:02:42.212Z,4.78
2023-03-18T00:05:11.031Z,5.97
2023-03-18T00:07:38.028Z,3.42
2023-03-18T00:10:07.156Z,3.63
2023-03-18T00:12:34.455Z,4.70
2023-03-18T00:15:02.408Z,3.88
2023-03-18T00:17:29.181Z,5.82
2023-03-18T00:19:56.002Z,4.40
2023-03-18T00:22:22.806Z,4.90
2023-03-18T00:24:49.595Z,4.35
2023-03-18T00:27:16.338Z,5.22
2023-03-18T00:29:43.803Z,9.45
2023-03-18T00:32:11.003Z,4.70
2023-03-18T00:34:37.906Z,4.82
2023-03-18T00:37:05.221Z,4.18
2023-03-18T00:39:33.102Z,5.03
2023-03-18T00:42:08.029Z,4.85
2023-03-18T00:44:34.855Z,3.08
2023-03-18T00:47:01.674Z,5.47
2023-03-18T00:49:28.694Z,3.63
2023-03-18T00:51:55.580Z,4.05
2023-03-18T00:54:22.544Z,4.13
2023-03-18T00:56:49.546Z,4.82
2023-03-18T00:59:16.655Z,4.50
2023-03-18T01:01:43.958Z,3.75
2023-03-18T01:04:11.432Z,5.35
2023-03-18T01:06:39.096Z,3.78
2023-03-18T01:09:10.572Z,5.45
2023-03-18T01:11:39.449Z,3.92
2023-03-18T01:14:06.513Z,3.65
2023-03-18T01:16:33.713Z,4.90
2023-03-18T01:19:00.663Z,5.10
2023-03-18T01:21:28.006Z,4.22
2023-03-18T01:24:00.486Z,4.43
2023-03-18T01:26:28.514Z,5.35
2023-03-18T01:28:58.211Z,4.45
2023-03-18T01:31:25.516Z,5.15
2023-03-18T01:33:56.016Z,4.88
2023-03-18T01:36:23.091Z,3.28
2023-03-18T01:39:01.591Z,3.65
2023-03-18T01:41:28.724Z,5.10
2023-03-18T01:43:55.538Z,4.35
2023-03-18T01:46:32.403Z,4.60
2023-03-18T01:49:02.663Z,4.50
2023-03-18T01:51:32.283Z,4.55
2023-03-18T01:54:04.886Z,3.78
2023-03-18T01:56:33.352Z,3.13
2023-03-18T01:59:00.699Z,4.22
2023-03-18T02:01:55.501Z,4.18
2023-03-18T02:04:29.015Z,3.53
2023-03-18T02:06:57.281Z,5.38
2023-03-18T02:09:24.144Z,4.75
2023-03-18T02:11:51.835Z,3.80
2023-03-18T02:14:23.752Z,5.03
2023-03-18T02:17:01.119Z,2.93
2023-03-18T02:19:49.530Z,5.60
2023-03-18T02:22:38.340Z,3.08
2023-03-18T02:25:45.485Z,4.60
2023-03-18T02:28:18.600Z,3.88
2023-03-18T02:30:52.473Z,4.18
2023-03-18T02:33:22.472Z,5.35
2023-03-18T02:35:58.533Z,4.43
2023-03-18T02:38:25.449Z,4.40
2023-03-18T02:40:53.624Z,3.28
2023-03-18T02:43:28.447Z,2.88
2023-03-18T02:46:11.031Z,3.20
2023-03-18T02:48:42.299Z,4.47
2023-03-18T02:51:10.674Z,5.05
2023-03-18T02:53:38.720Z,2.70
2023-03-18T02:56:06.922Z,2.33
2023-03-18T02:58:35.262Z,4.18
2023-03-18T03:01:08.280Z,3.20
2023-03-18T03:03:36.997Z,5.10
2023-03-18T03:06:04.374Z,4.13
2023-03-18T03:08:31.649Z,4.45
2023-03-18T03:10:58.579Z,4.30
2023-03-18T03:13:27.819Z,3.20
2023-03-18T03:15:55.821Z,3.17
2023-03-18T03:18:22.909Z,4.10
2023-03-18T03:20:51.234Z,2.58
2023-03-18T03:23:20.411Z,3.55
2023-03-18T03:25:49.284Z,3.15
2023-03-18T03:28:16.651Z,2.88
2023-03-18T03:30:44.104Z,4.50
2023-03-18T03:33:11.793Z,3.35
2023-03-18T03:35:42.102Z,4.97
2023-03-18T03:38:09.366Z,4.15
2023-03-18T03:40:37.037Z,3.72
2023-03-18T03:43:04.013Z,5.05
2023-03-18T03:45:31.836Z,5.38
2023-03-18T03:48:00.183Z,4.35
2023-03-18T03:50:27.011Z,2.80
2023-03-18T03:52:54.147Z,2.78
2023-03-18T03:55:22.356Z,2.47
2023-03-18T03:57:49.398Z,2.42
2023-03-18T04:00:20.398Z,3.35
2023-03-18T04:02:51.469Z,4.00
2023-03-18T04:05:21.615Z,3.55
2023-03-18T04:07:49.845Z,3.85
2023-03-18T04:10:20.235Z,2.85
2023-03-18T04:12:47.907Z,3.13
2023-03-18T04:15:16.412Z,5.63
2023-03-18T04:17:45.287Z,2.80
2023-03-18T04:20:17.109Z,2.80
2023-03-18T04:22:45.461Z,3.28
2023-03-18T04:25:14.815Z,2.85
2023-03-18T04:27:42.583Z,3.25
2023-03-18T04:30:13.586Z,3.03
2023-03-18T04:35:23.331Z,3.30
2023-03-18T04:37:51.131Z,2.80
2023-03-18T04:40:19.943Z,2.70
2023-03-18T04:42:47.871Z,2.78
2023-03-18T04:45:16.988Z,3.42
2023-03-18T04:47:45.235Z,3.03
2023-03-18T04:50:14.112Z,2.63
2023-03-18T04:52:43.607Z,2.50
2023-03-18T04:55:18.060Z,2.35
2023-03-18T04:57:45.721Z,2.50
2023-03-18T05:00:17.932Z,3.20
2023-03-18T05:02:47.277Z,3.70
2023-03-18T05:05:14.388Z,2.75
2023-03-18T05:07:46.120Z,2.47
2023-03-18T05:10:15.946Z,3.05
2023-03-18T05:12:43.469Z,3.65
2023-03-18T05:15:13.119Z,2.75
2023-03-18T05:17:45.164Z,3.03
2023-03-18T05:20:13.365Z,3.58
2023-03-18T05:22:40.978Z,2.28
2023-03-18T05:25:15.078Z,3.78
2023-03-18T05:27:42.024Z,2.05
2023-03-18T05:30:23.899Z,4.90
2023-03-18T05:32:53.788Z,3.53
2023-03-18T05:35:27.505Z,2.63
2023-03-18T05:37:54.287Z,2.83
2023-03-18T05:40:21.548Z,4.13
2023-03-18T05:43:02.339Z,3.80
2023-03-18T05:45:39.517Z,4.30
2023-03-18T05:48:08.710Z,4.22
2023-03-18T05:50:44.119Z,4.18
2023-03-18T05:53:16.350Z,3.53
2023-03-18T05:55:44.977Z,2.72
2023-03-18T05:58:12.615Z,4.97
2023-03-18T06:00:41.537Z,3.83
2023-03-18T06:03:10.179Z,3.95
2023-03-18T06:05:37.076Z,3.75
2023-03-18T06:08:03.999Z,3.20
2023-03-18T06:10:31.417Z,3.33
2023-03-18T06:12:58.384Z,3.50
2023-03-18T06:15:26.486Z,3.45
2023-03-18T06:17:53.340Z,4.30
2023-03-18T06:20:20.399Z,4.18
2023-03-18T06:22:51.647Z,3.88
2023-03-18T06:25:20.347Z,4.72
2023-03-18T06:27:48.471Z,3.85
2023-03-18T06:30:18.251Z,3.78
2023-03-18T06:32:47.125Z,4.38
2023-03-18T06:35:15.450Z,3.72
2023-03-18T06:37:43.729Z,4.78
2023-03-18T06:40:12.267Z,3.45
2023-03-18T06:42:39.812Z,2.95
2023-03-18T06:45:19.126Z,4.28
2023-03-18T06:47:51.853Z,5.38
2023-03-18T06:50:18.933Z,4.32
2023-03-18T06:52:45.686Z,3.88
2023-03-18T06:55:16.664Z,3.42
2023-03-18T06:57:45.686Z,3.25
2023-03-18T07:00:16.230Z,3.92
2023-03-18T07:02:43.755Z,3.47
2023-03-18T07:05:13.265Z,3.58
2023-03-18T07:07:42.065Z,3.65
2023-03-18T07:10:15.974Z,2.80
2023-03-18T07:12:42.772Z,3.97
2023-03-18T07:15:11.235Z,4.03
2023-03-18T07:17:38.855Z,3.80
2023-03-18T07:20:07.305Z,3.38
2023-03-18T07:22:37.348Z,3.53
2023-03-18T07:25:05.119Z,4.03
2023-03-18T07:27:31.857Z,6.47
2023-03-18T07:29:58.522Z,3.92
2023-03-18T07:32:25.742Z,4.45
2023-03-18T07:34:52.529Z,5.10
2023-03-18T07:37:19.302Z,5.07
2023-03-18T07:39:46.790Z,6.30
2023-03-18T07:42:13.590Z,5.72
2023-03-18T07:44:45.556Z,3.38
2023-03-18T07:47:14.500Z,6.18
2023-03-18T07:49:41.622Z,3.08
2023-03-18T07:52:09.284Z,2.15
2023-03-18T07:54:36.268Z,2.08
2023-03-18T07:57:04.642Z,4.25
2023-03-18T07:59:31.328Z,2.30
2023-03-18T08:01:58.184Z,2.17
2023-03-18T08:04:25.200Z,2.38
2023-03-18T08:06:52.427Z,1.75
2023-03-18T08:09:19.112Z,2.33
2023-03-18T08:11:45.987Z,2.20
2023-03-18T08:14:13.792Z,2.00
2023-03-18T08:16:40.684Z,2.50
2023-03-18T08:19:07.592Z,1.58
2023-03-18T08:21:34.489Z,2.80
2023-03-18T08:24:01.135Z,1.38
2023-03-18T08:26:27.819Z,1.23
2023-03-18T08:28:54.754Z,2.03
2023-03-18T08:31:21.431Z,2.13
2023-03-18T08:33:49.470Z,2.63
2023-03-18T08:36:16.621Z,2.28
2023-03-18T08:38:43.331Z,1.50
2023-03-18T08:41:10.398Z,1.00
2023-03-18T08:43:39.020Z,2.00
2023-03-18T08:46:06.840Z,2.25
2023-03-18T08:48:35.016Z,1.80
2023-03-18T08:51:08.139Z,2.67
2023-03-18T08:53:35.660Z,1.88
2023-03-18T08:56:03.200Z,1.85
2023-03-18T08:58:30.493Z,1.83
2023-03-18T09:00:57.403Z,2.22
2023-03-18T09:03:24.849Z,2.13
2023-03-18T09:05:55.642Z,1.63
2023-03-18T09:08:22.628Z,0.93
2023-03-18T09:10:55.033Z,1.30
2023-03-18T09:13:22.806Z,1.40
2023-03-18T09:15:49.576Z,2.05
2023-03-18T09:18:18.341Z,3.28
2023-03-18T09:20:46.186Z,2.75
2023-03-18T09:23:14.089Z,1.45
2023-03-18T09:25:42.722Z,2.08
2023-03-18T09:28:09.786Z,1.52
2023-03-18T09:30:37.737Z,2.38
2023-03-18T09:33:06.772Z,2.47
2023-03-18T09:35:35.177Z,2.33
2023-03-18T09:38:03.955Z,1.48
2023-03-18T09:40:43.830Z,2.90
2023-03-18T09:43:26.673Z,3.03
2023-03-18T09:46:06.777Z,3.60
2023-03-18T09:49:00.664Z,1.73
2023-03-18T09:51:48.440Z,1.50
2023-03-18T09:54:41.071Z,2.65
2023-03-18T09:57:39.597Z,2.03
2023-03-18T10:00:13.515Z,1.02
2023-03-18T10:02:45.488Z,4.07
2023-03-18T10:05:21.629Z,1.73
2023-03-18T10:07:52.224Z,2.65
2023-03-18T10:10:27.964Z,1.73
2023-03-18T10:13:07.638Z,2.13
2023-03-18T10:15:42.956Z,2.45
2023-03-18T10:18:24.437Z,1.33
2023-03-18T10:21:11.357Z,1.23
2023-03-18T10:24:07.022Z,2.75
2023-03-18T10:26:50.259Z,3.38
2023-03-18T10:29:34.654Z,3.22
2023-03-18T10:32:49.889Z,1.90
2023-03-18T10:35:46.461Z,2.15
2023-03-18T10:38:23.131Z,1.27
2023-03-18T10:40:49.865Z,0.85
2023-03-18T10:43:23.182Z,1.73
2023-03-18T10:45:58.684Z,1.85
2023-03-18T10:48:42.041Z,1.80
2023-03-18T10:51:31.641Z,2.08
2023-03-18T10:54:03.556Z,1.65
2023-03-18T10:56:31.664Z,2.97
2023-03-18T10:58:58.791Z,1.35
2023-03-18T11:01:28.895Z,3.33
2023-03-18T11:04:06.714Z,2.58
2023-03-18T11:06:41.724Z,2.60
2023-03-18T11:09:15.577Z,1.00
2023-03-18T11:11:49.879Z,3.17
2023-03-18T11:14:20.877Z,1.95
2023-03-18T11:16:56.825Z,1.67
2023-03-18T11:19:47.684Z,2.05
2023-03-18T11:22:21.479Z,1.92
2023-03-18T11:25:03.419Z,8.07
2023-03-18T11:27:40.046Z,1.15
2023-03-18T11:30:40.691Z,1.85
2023-03-18T11:33:10.352Z,0.93
2023-03-18T11:35:47.267Z,1.85
2023-03-18T11:38:21.543Z,1.05
2023-03-18T11:40:48.589Z,1.90
2023-03-18T11:43:25.457Z,1.63
2023-03-18T11:45:58.000Z,1.67
2023-03-18T11:48:29.669Z,1.27
2023-03-18T11:51:06.983Z,1.00
2023-03-18T11:53:52.535Z,1.85
2023-03-18T11:56:33.543Z,0.70
2023-03-18T11:59:30.509Z,1.10
2023-03-18T12:02:45.166Z,1.80
2023-03-18T12:05:41.006Z,1.10
2023-03-18T12:08:27.409Z,0.95
2023-03-18T12:11:19.100Z,1.08
2023-03-18T12:16:32.651Z,2.00
2023-03-18T12:19:15.025Z,0.93
2023-03-18T12:22:04.252Z,1.40
2023-03-18T12:25:08.598Z,2.00
2023-03-18T12:27:58.693Z,1.10
2023-03-18T12:30:39.610Z,0.70
2023-03-18T12:33:06.350Z,1.63
2023-03-18T12:35:44.286Z,2.83
2023-03-18T12:38:45.269Z,1.20
2023-03-18T12:41:35.406Z,1.40
2023-03-18T12:44:06.739Z,2.58
2023-03-18T12:46:54.367Z,0.60
2023-03-18T12:49:36.757Z,1.35
2023-03-18T12:52:27.457Z,1.73
2023-03-18T12:55:07.497Z,1.63
2023-03-18T12:57:40.717Z,1.30
2023-03-18T13:00:30.069Z,1.75
2023-03-18T13:03:24.710Z,1.13
2023-03-18T13:06:17.249Z,0.98
2023-03-18T13:09:02.066Z,0.82
2023-03-18T13:11:55.490Z,1.13
2023-03-18T13:14:33.713Z,1.23
2023-03-18T13:17:01.811Z,1.48
2023-03-18T13:19:29.280Z,1.98
2023-03-18T13:22:30.193Z,0.70
2023-03-18T13:25:35.410Z,1.20
2023-03-18T13:28:19.999Z,1.73
2023-03-18T13:30:56.438Z,0.60
2023-03-18T13:33:32.216Z,1.33
2023-03-18T13:36:11.153Z,1.13
2023-03-18T13:39:00.238Z,0.90
2023-03-18T13:41:40.160Z,1.25
2023-03-18T13:44:17.231Z,1.42
2023-03-18T13:46:54.530Z,1.10
2023-03-18T13:49:25.676Z,1.02
2023-03-18T13:51:58.015Z,1.08
2023-03-18T13:54:41.171Z,1.08
2023-03-18T13:57:32.872Z,2.42
2023-03-18T14:03:05.188Z,1.88
2023-03-18T14:05:41.052Z,2.42
2023-03-18T14:08:45.510Z,0.60
2023-03-18T14:11:19.765Z,1.02
2023-03-18T14:14:02.053Z,1.30
2023-03-18T14:16:37.735Z,2.08
2023-03-18T14:19:19.277Z,0.80
2023-03-18T14:21:52.845Z,1.25
2023-03-18T14:24:20.671Z,1.63
2023-03-18T14:27:05.249Z,1.20
2023-03-18T14:29:41.705Z,1.50
2023-03-18T14:32:33.661Z,0.95
2023-03-18T14:35:27.968Z,1.58
2023-03-18T14:38:05.126Z,1.65
2023-03-18T14:40:38.283Z,0.50
2023-03-18T14:43:20.052Z,1.77
2023-03-18T14:48:21.661Z,1.80
2023-03-18T14:50:51.843Z,1.00
2023-03-18T14:53:24.070Z,1.40
2023-03-18T14:55:52.266Z,1.20
2023-03-18T14:58:23.759Z,1.50
2023-03-18T15:03:25.505Z,1.35
2023-03-18T15:05:58.218Z,1.65
2023-03-18T15:08:46.304Z,1.08
2023-03-18T15:11:16.388Z,1.60
2023-03-18T15:13:44.523Z,2.15
2023-03-18T15:16:14.155Z,1.20
2023-03-18T15:18:40.924Z,1.20
2023-03-18T15:21:30.618Z,0.90
2023-03-18T15:24:03.518Z,0.55
2023-03-18T15:26:42.049Z,1.33
2023-03-18T15:29:24.201Z,1.30
2023-03-18T15:31:52.846Z,1.67
2023-03-18T15:34:27.529Z,1.00
2023-03-18T15:37:00.895Z,1.38
2023-03-18T15:39:27.560Z,1.67
2023-03-18T15:41:55.320Z,1.27
2023-03-18T15:44:31.785Z,2.13
2023-03-18T15:47:21.451Z,0.75
2023-03-18T15:49:55.301Z,1.23
2023-03-18T15:52:27.354Z,1.75
2023-03-18T15:54:54.000Z,1.80
2023-03-18T15:57:42.976Z,0.85
2023-03-18T16:00:13.072Z,1.60
2023-03-18T16:02:39.900Z,3.25
2023-03-18T16:05:20.201Z,2.45
2023-03-18T16:07:48.885Z,4.07
2023-03-18T16:10:19.586Z,3.90
2023-03-18T16:12:48.875Z,2.25
2023-03-18T16:15:22.001Z,2.92
2023-03-18T16:17:53.504Z,3.10
2023-03-18T16:22:51.872Z,1.30
2023-03-18T16:25:19.336Z,1.80
2023-03-18T16:27:48.445Z,2.20
2023-03-18T16:30:24.469Z,1.73
2023-03-18T16:32:52.331Z,2.72
2023-03-18T16:35:25.447Z,2.13
2023-03-18T16:37:53.085Z,1.50
2023-03-18T16:40:24.248Z,0.93
2023-03-18T16:42:51.152Z,1.48
2023-03-18T16:45:22.221Z,2.00
2023-03-18T16:47:51.135Z,1.58
2023-03-18T16:50:23.808Z,1.33
2023-03-18T16:52:50.998Z,1.35
2023-03-18T16:55:19.646Z,1.67
2023-03-18T16:58:00.026Z,2.47
2023-03-18T17:00:34.069Z,2.47
2023-03-18T17:03:01.743Z,1.35
2023-03-18T17:05:28.981Z,1.13
2023-03-18T17:07:55.989Z,1.25
2023-03-18T17:10:26.204Z,0.82
2023-03-18T17:12:57.475Z,3.17
2023-03-18T17:15:31.846Z,2.75
2023-03-18T17:17:59.707Z,2.35
2023-03-18T17:20:29.736Z,1.35
2023-03-18T17:22:56.715Z,1.60
2023-03-18T17:25:25.645Z,2.00
2023-03-18T17:27:56.002Z,0.82
2023-03-18T17:30:37.841Z,0.85
2023-03-18T17:33:21.498Z,1.48
2023-03-18T17:35:48.258Z,1.65
2023-03-18T17:38:15.686Z,2.40
2023-03-18T17:40:43.048Z,1.92
2023-03-18T17:43:22.769Z,1.13
2023-03-18T17:45:49.638Z,1.55
2023-03-18T17:48:23.541Z,2.15
2023-03-18T17:50:57.780Z,2.65
2023-03-18T17:53:30.183Z,3.10
2023-03-18T17:55:57.885Z,3.28
2023-03-18T17:58:27.741Z,2.45
2023-03-18T18:00:57.942Z,3.67
2023-03-18T18:03:27.498Z,4.13
2023-03-18T18:05:55.918Z,3.03
2023-03-18T18:08:25.142Z,2.22
2023-03-18T18:10:54.191Z,2.85
2023-03-18T18:13:22.861Z,3.00
2023-03-18T18:15:51.082Z,3.60
2023-03-18T18:18:26.583Z,3.63
2023-03-18T18:21:01.807Z,3.67
2023-03-18T18:23:32.594Z,6.88
2023-03-18T18:26:02.123Z,2.45
2023-03-18T18:28:37.675Z,3.38
2023-03-18T18:31:07.873Z,4.38
2023-03-18T18:33:35.756Z,4.38
2023-03-18T18:36:03.215Z,5.22
2023-03-18T18:38:30.781Z,4.40
2023-03-18T18:40:58.712Z,7.22
2023-03-18T18:43:26.078Z,6.30
2023-03-18T18:45:54.631Z,7.43
2023-03-18T18:48:31.968Z,5.03
2023-03-18T18:50:59.906Z,5.88
2023-03-18T18:53:32.154Z,7.05
2023-03-18T18:56:02.529Z,5.10
2023-03-18T18:58:31.473Z,5.40
2023-03-18T19:00:59.785Z,4.25
2023-03-18T19:03:31.083Z,4.63
2023-03-18T19:05:59.859Z,3.35
2023-03-18T19:08:36.735Z,4.35
2023-03-18T19:11:07.683Z,4.93
2023-03-18T19:13:36.556Z,4.70
2023-03-18T19:16:18.921Z,5.57
2023-03-18T19:18:45.802Z,5.03
2023-03-18T19:21:13.211Z,9.32
2023-03-18T19:23:40.061Z,10.40
2023-03-18T19:26:07.339Z,8.77
2023-03-18T19:28:47.773Z,6.93
2023-03-18T19:31:26.716Z,7.18
2023-03-18T19:33:54.220Z,5.68
2023-03-18T19:36:31.589Z,6.05
2023-03-18T19:39:00.516Z,6.65
2023-03-18T19:41:27.668Z,7.30
2023-03-18T19:44:11.453Z,5.88
2023-03-18T19:46:39.522Z,7.65
2023-03-18T19:49:25.422Z,6.63
2023-03-18T19:51:52.867Z,6.45
2023-03-18T19:54:19.804Z,8.02
2023-03-18T19:56:46.549Z,5.95
2023-03-18T19:59:20.959Z,5.00
2023-03-18T20:01:48.494Z,6.22
2023-03-18T20:04:16.780Z,5.65
2023-03-18T20:06:50.580Z,5.05
2023-03-18T20:09:20.313Z,6.60
2023-03-18T20:11:50.321Z,4.75
2023-03-18T20:14:24.190Z,5.78
2023-03-18T20:16:51.181Z,5.45
2023-03-18T20:19:17.895Z,4.90
2023-03-18T20:21:44.816Z,3.53
2023-03-18T20:24:18.187Z,5.22
2023-03-18T20:26:45.068Z,5.70
2023-03-18T20:29:20.947Z,5.75
2023-03-18T20:31:47.839Z,4.65
2023-03-18T20:34:14.569Z,5.88
2023-03-18T20:36:42.293Z,5.18
2023-03-18T20:39:19.335Z,6.38
2023-03-18T20:41:46.563Z,6.43
2023-03-18T20:44:13.619Z,5.13
2023-03-18T20:46:41.720Z,5.75
2023-03-18T20:49:09.041Z,4.55
2023-03-18T20:51:40.638Z,6.22
2023-03-18T20:56:55.749Z,5.57
2023-03-18T20:59:22.397Z,6.00
2023-03-18T21:01:49.509Z,5.07
2023-03-18T21:04:16.483Z,6.70
2023-03-18T21:06:43.748Z,6.82
2023-03-18T21:09:12.211Z,6.45
2023-03-18T21:11:39.235Z,7.28
2023-03-18T21:14:06.699Z,4.80
2023-03-18T21:16:36.466Z,5.72
2023-03-18T21:19:04.331Z,8.05
2023-03-18T21:21:38.270Z,4.57
2023-03-18T21:24:27.507Z,7.90
2023-03-18T21:27:04.267Z,5.82
2023-03-18T21:29:36.374Z,5.97
2023-03-18T21:32:34.380Z,5.85
2023-03-18T21:35:01.167Z,6.88
2023-03-18T21:37:27.877Z,4.32
2023-03-18T21:39:54.690Z,6.28
2023-03-18T21:42:28.513Z,6.15
2023-03-18T21:44:57.408Z,6.65
2023-03-18T21:47:26.286Z,4.57
2023-03-18T21:49:53.428Z,6.32
2023-03-18T21:52:28.512Z,6.55
2023-03-18T21:54:55.352Z,7.10
2023-03-18T21:57:22.939Z,4.97
2023-03-18T21:59:50.988Z,4.53
2023-03-18T22:02:29.647Z,4.97
2023-03-18T22:04:58.407Z,5.78
2023-03-18T22:07:27.062Z,5.72
2023-03-18T22:09:54.228Z,6.25
2023-03-18T22:12:29.826Z,5.78
2023-03-18T22:14:57.390Z,6.53
2023-03-18T22:17:32.784Z,5.53
2023-03-18T22:20:01.654Z,6.40
2023-03-18T22:22:39.014Z,5.88
2023-03-18T22:25:06.630Z,6.18
2023-03-18T22:27:33.355Z,4.50
2023-03-18T22:30:00.825Z,5.97
2023-03-18T22:32:40.525Z,4.32
2023-03-18T22:35:15.222Z,5.30
2023-03-18T22:37:42.711Z,5.95
2023-03-18T22:40:18.251Z,4.88
2023-03-18T22:42:51.787Z,6.82
2023-03-18T22:45:27.013Z,5.68
2023-03-18T22:47:56.429Z,5.30
2023-03-18T22:50:24.983Z,5.88
2023-03-18T22:52:57.804Z,6.53
2023-03-18T22:55:26.629Z,4.85
2023-03-18T22:57:53.787Z,6.97
2023-03-18T23:00:41.828Z,6.40
2023-03-18T23:03:18.677Z,4.95
2023-03-18T23:05:46.949Z,6.85
2023-03-18T23:08:14.044Z,5.38
2023-03-18T23:10:41.955Z,5.57
2023-03-18T23:13:36.665Z,5.43
2023-03-18T23:16:11.444Z,5.05
2023-03-18T23:18:38.464Z,7.00
2023-03-18T23:21:05.332Z,7.32
2023-03-18T23:23:32.111Z,5.80
2023-03-18T23:25:59.133Z,5.20
2023-03-18T23:28:25.978Z,6.43
2023-03-18T23:30:53.784Z,7.82
2023-03-18T23:33:20.564Z,8.18
2023-03-18T23:35:48.054Z,8.55
2023-03-18T23:38:14.915Z,5.00
2023-03-18T23:40:41.650Z,8.52
2023-03-18T23:43:09.087Z,7.35
2023-03-18T23:45:38.475Z,5.53
2023-03-18T23:48:06.720Z,5.85
2023-03-18T23:50:33.918Z,7.15
2023-03-18T23:53:00.885Z,4.43
2023-03-18T23:55:34.367Z,7.00
2023-03-18T23:58:03.293Z,5.07
